createdAt,value
2017-06-26T00:00:01.871Z,13.4
2017-06-26T00:05:01.464Z,13.4
2017-06-26T00:10:02.171Z,13.4
2017-06-26T00:15:01.962Z,13.4
2017-06-26T00:20:01.405Z,13.4
2017-06-26T00:25:01.208Z,13.4
2017-06-26T00:30:01.978Z,13.4
2017-06-26T00:35:02.167Z,13.4
2017-06-26T00:40:01.905Z,13.5
2017-06-26T00:45:01.880Z,13.5
2017-06-26T00:50:01.759Z,13.4
2017-06-26T00:55:01.482Z,13.4
2017-06-26T01:00:01.279Z,13.5
2017-06-26T01:05:01.807Z,13.5
2017-06-26T01:10:01.513Z,13.6
2017-06-26T01:15:01.961Z,13.6
2017-06-26T01:20:01.233Z,13.6
2017-06-26T01:25:02.013Z,13.6
2017-06-26T01:30:01.889Z,13.6
2017-06-26T01:35:01.289Z,13.6
2017-06-26T01:40:02.096Z,13.6
2017-06-26T01:45:01.911Z,13.6
2017-06-26T01:50:01.314Z,13.6
2017-06-26T01:55:02.117Z,13.6
2017-06-26T02:00:02.144Z,13.6
2017-06-26T02:05:01.518Z,13.5
2017-06-26T02:10:01.539Z,13.4
2017-06-26T02:15:01.726Z,13.4
2017-06-26T02:20:02.179Z,13.4
2017-06-26T02:25:02.009Z,13.3
2017-06-26T02:30:01.636Z,13.3
2017-06-26T02:35:01.698Z,13.2
2017-06-26T02:40:01.550Z,13.2
2017-06-26T02:45:01.697Z,13.1
2017-06-26T02:50:01.914Z,13.1
2017-06-26T02:55:01.673Z,13
2017-06-26T03:00:01.866Z,13
2017-06-26T03:05:01.429Z,13
2017-06-26T03:10:02.175Z,12.9
2017-06-26T03:15:01.315Z,12.8
2017-06-26T03:20:01.878Z,12.8
2017-06-26T03:25:01.732Z,12.8
2017-06-26T03:30:01.829Z,12.7
2017-06-26T03:35:01.178Z,12.7
2017-06-26T03:40:01.254Z,12.7
2017-06-26T03:45:02.127Z,12.7
2017-06-26T03:50:02.118Z,12.7
2017-06-26T03:55:01.705Z,12.7
2017-06-26T04:00:02.055Z,12.8
2017-06-26T04:05:02.056Z,12.8
2017-06-26T04:10:01.961Z,12.8
2017-06-26T04:15:01.598Z,12.9
2017-06-26T04:20:01.350Z,13
2017-06-26T04:25:01.566Z,13.1
2017-06-26T04:30:01.975Z,13.2
2017-06-26T04:35:02.030Z,13.2
2017-06-26T04:40:01.694Z,13.3
2017-06-26T04:45:01.500Z,13.3
2017-06-26T04:50:01.632Z,13.5
2017-06-26T04:55:01.384Z,13.7
2017-06-26T05:00:02.318Z,13.7
2017-06-26T05:05:02.149Z,13.8
2017-06-26T05:10:01.248Z,14
2017-06-26T05:15:01.924Z,14
2017-06-26T05:20:01.442Z,14.2
2017-06-26T05:25:01.814Z,14.4
2017-06-26T05:30:02.147Z,14.5
2017-06-26T05:35:01.287Z,14.6
2017-06-26T05:40:02.077Z,14.6
2017-06-26T05:45:01.803Z,15
2017-06-26T05:50:02.051Z,15
2017-06-26T05:55:01.681Z,15
2017-06-26T06:00:02.004Z,15
2017-06-26T06:05:01.666Z,15
2017-06-26T06:10:01.742Z,15
2017-06-26T06:15:02.042Z,15
2017-06-26T06:20:02.032Z,15
2017-06-26T06:25:01.213Z,15
2017-06-26T06:30:01.936Z,15.2
2017-06-26T06:35:01.929Z,15.2
2017-06-26T06:40:01.655Z,15.4
2017-06-26T06:45:01.275Z,15.6
2017-06-26T06:50:01.579Z,15.6
2017-06-26T06:55:01.646Z,15.7
2017-06-26T07:00:01.956Z,15.7
2017-06-26T07:05:01.437Z,15.8
2017-06-26T07:10:01.420Z,15.8
2017-06-26T07:15:01.274Z,16
2017-06-26T07:20:01.401Z,16
2017-06-26T07:25:01.549Z,16
2017-06-26T07:30:02.086Z,16.2
2017-06-26T07:35:01.438Z,16.2
2017-06-26T07:40:02.148Z,16.4
2017-06-26T07:45:01.871Z,16.4
2017-06-26T07:50:01.718Z,16.4
2017-06-26T07:55:01.550Z,16.4
2017-06-26T08:00:01.925Z,16.4
2017-06-26T08:05:01.527Z,16.2
2017-06-26T08:10:01.382Z,16.4
2017-06-26T08:15:01.712Z,16.4
2017-06-26T08:20:02.141Z,16.4
2017-06-26T08:25:02.188Z,16.4
2017-06-26T08:30:01.392Z,16.4
2017-06-26T08:35:01.873Z,16.5
2017-06-26T08:40:01.743Z,16.3
2017-06-26T08:45:01.619Z,16.4
2017-06-26T08:50:02.173Z,16.4
2017-06-26T08:55:01.787Z,16.4
2017-06-26T09:00:02.132Z,16.4
2017-06-26T09:05:01.660Z,16.4
2017-06-26T09:10:01.666Z,17.8
2017-06-26T09:15:02.028Z,18
2017-06-26T09:20:01.353Z,18
2017-06-26T09:25:01.509Z,18
2017-06-26T09:30:01.899Z,18.2
2017-06-26T09:35:01.453Z,18
2017-06-26T09:40:02.147Z,18
2017-06-26T09:45:01.976Z,17.7
2017-06-26T09:50:02.148Z,17.7
2017-06-26T09:55:01.685Z,17.7
2017-06-26T10:00:02.052Z,17.7
2017-06-26T10:05:01.606Z,18.6
2017-06-26T10:10:01.976Z,18.6
2017-06-26T10:15:01.598Z,18.6
2017-06-26T10:20:01.968Z,18.4
2017-06-26T10:25:01.940Z,18.4
2017-06-26T10:30:01.565Z,18.6
2017-06-26T10:35:02.102Z,18.6
2017-06-26T10:40:01.812Z,18.6
2017-06-26T10:45:01.619Z,18.6
2017-06-26T10:50:02.076Z,18.6
2017-06-26T10:55:01.942Z,18.6
2017-06-26T11:00:01.229Z,18.6
2017-06-26T11:05:01.936Z,19.3
2017-06-26T11:10:01.806Z,19.3
2017-06-26T11:15:02.131Z,19.3
2017-06-26T11:20:01.227Z,19.4
2017-06-26T11:25:01.397Z,19.4
2017-06-26T11:30:01.874Z,19.7
2017-06-26T11:35:01.490Z,19.7
2017-06-26T11:40:01.597Z,19.7
2017-06-26T11:45:01.189Z,19.7
2017-06-26T11:50:01.741Z,19.5
2017-06-26T11:55:01.466Z,19.6
2017-06-26T12:00:02.100Z,19.6
2017-06-26T12:05:01.249Z,19.6
2017-06-26T12:10:01.287Z,19.4
2017-06-26T12:15:01.600Z,19.3
2017-06-26T12:20:01.889Z,19
2017-06-26T12:25:01.960Z,19
2017-06-26T12:30:01.357Z,19
2017-06-26T12:35:01.958Z,19
2017-06-26T12:40:02.019Z,18.9
2017-06-26T12:45:01.677Z,18.9
2017-06-26T12:50:01.557Z,18.9
2017-06-26T12:55:02.080Z,18.9
2017-06-26T13:00:01.438Z,18.9
2017-06-26T13:05:01.607Z,19.3
2017-06-26T13:10:01.751Z,19.3
2017-06-26T13:15:01.200Z,19.2
2017-06-26T13:20:01.697Z,19.2
2017-06-26T13:25:01.899Z,19.2
2017-06-26T13:30:01.640Z,19.2
2017-06-26T13:35:01.452Z,19.3
2017-06-26T13:40:01.764Z,19.3
2017-06-26T13:45:01.688Z,19.3
2017-06-26T13:50:02.105Z,19.3
2017-06-26T13:55:01.864Z,19.3
2017-06-26T14:00:01.548Z,19.3
2017-06-26T14:05:01.870Z,19.3
2017-06-26T14:10:01.778Z,19.3
2017-06-26T14:15:01.436Z,19.3
2017-06-26T14:20:01.784Z,19.3
2017-06-26T14:25:01.862Z,19.3
2017-06-26T14:30:02.155Z,19.1
2017-06-26T14:35:01.593Z,19
2017-06-26T14:40:01.270Z,19
2017-06-26T14:45:01.321Z,19
2017-06-26T14:50:01.702Z,19.1
2017-06-26T14:55:02.082Z,19.2
2017-06-26T15:00:01.312Z,19.1
2017-06-26T15:05:01.261Z,19.1
2017-06-26T15:10:01.424Z,19.1
2017-06-26T15:15:01.475Z,19
2017-06-26T15:20:01.489Z,19
2017-06-26T15:25:01.447Z,19.2
2017-06-26T15:30:01.535Z,19.2
2017-06-26T15:35:01.960Z,19.2
2017-06-26T15:40:01.867Z,19.2
2017-06-26T15:45:01.453Z,19
2017-06-26T15:50:01.840Z,19
2017-06-26T15:55:01.602Z,19
2017-06-26T16:00:02.017Z,18.9
2017-06-26T16:05:01.571Z,18.8
2017-06-26T16:10:01.379Z,18.8
2017-06-26T16:15:01.473Z,18.8
2017-06-26T16:20:01.549Z,18.6
2017-06-26T16:25:01.784Z,18.5
2017-06-26T16:30:01.274Z,18.4
2017-06-26T16:35:01.462Z,18.4
2017-06-26T16:40:01.203Z,18.4
2017-06-26T16:45:01.885Z,18.4
2017-06-26T16:50:02.007Z,18.4
2017-06-26T16:55:01.752Z,18.4
2017-06-26T17:00:01.477Z,18.4
2017-06-26T17:05:01.351Z,18.1
2017-06-26T17:10:02.239Z,18
2017-06-26T17:15:01.289Z,18
2017-06-26T17:20:01.768Z,18
2017-06-26T17:25:01.838Z,18
2017-06-26T17:30:02.024Z,18
2017-06-26T17:35:01.788Z,18
2017-06-26T17:40:01.204Z,18
2017-06-26T17:45:01.420Z,18
2017-06-26T17:50:02.184Z,18
2017-06-26T17:55:01.252Z,17.5
2017-06-26T18:00:02.030Z,17.4
2017-06-26T18:05:02.144Z,17.4
2017-06-26T18:10:01.234Z,17.2
2017-06-26T18:15:01.799Z,17.2
2017-06-26T18:20:02.122Z,17.2
2017-06-26T18:25:01.991Z,17.2
2017-06-26T18:30:01.567Z,17.2
2017-06-26T18:35:01.573Z,17.2
2017-06-26T18:40:02.155Z,17.2
2017-06-26T18:45:02.063Z,16.6
2017-06-26T18:50:02.211Z,16.6
2017-06-26T18:55:02.129Z,16.5
2017-06-26T19:00:01.605Z,16.4
2017-06-26T19:05:02.539Z,16.2
2017-06-26T19:10:02.158Z,16.1
2017-06-26T19:15:02.207Z,16
2017-06-26T19:20:02.134Z,15.9
2017-06-26T19:25:02.187Z,15.9
2017-06-26T19:30:01.356Z,15.9
2017-06-26T19:35:02.022Z,15.6
2017-06-26T19:40:01.892Z,15.6
2017-06-26T19:45:01.466Z,15.6
2017-06-26T19:50:01.940Z,15
2017-06-26T19:55:02.077Z,15
2017-06-26T20:00:02.206Z,15
2017-06-26T20:05:01.256Z,15
2017-06-26T20:10:02.403Z,15
2017-06-26T20:15:02.751Z,15
2017-06-26T20:20:01.702Z,15
2017-06-26T20:25:01.574Z,14.7
2017-06-26T20:30:02.005Z,14.5
2017-06-26T20:35:01.422Z,14.5
2017-06-26T20:40:01.786Z,14.3
2017-06-26T20:45:01.744Z,14.2
2017-06-26T20:50:02.218Z,14.2
2017-06-26T20:55:01.670Z,14.2
2017-06-26T21:00:01.611Z,14
2017-06-26T21:05:02.071Z,14
2017-06-26T21:10:01.456Z,13.8
2017-06-26T21:15:01.236Z,13.7
2017-06-26T21:20:01.597Z,13.6
2017-06-26T21:25:01.609Z,13.6
2017-06-26T21:30:01.525Z,13.6
2017-06-26T21:35:01.323Z,13.6
2017-06-26T21:40:02.400Z,13.6
2017-06-26T21:45:01.956Z,13.3
2017-06-26T21:50:01.222Z,13.3
2017-06-26T21:55:01.263Z,13.2
2017-06-26T22:00:01.577Z,13.1
2017-06-26T22:05:01.978Z,13
2017-06-26T22:10:01.695Z,13
2017-06-26T22:15:01.644Z,13
2017-06-26T22:20:01.516Z,12.8
2017-06-26T22:25:01.480Z,12.8
2017-06-26T22:30:01.172Z,12.8
2017-06-26T22:35:01.529Z,12.6
2017-06-26T22:40:01.669Z,12.5
2017-06-26T22:45:01.723Z,12.5
2017-06-26T22:50:01.728Z,12.5
2017-06-26T22:55:01.453Z,12.5
2017-06-26T23:00:01.320Z,12.5
2017-06-26T23:05:01.579Z,12.5
2017-06-26T23:10:01.264Z,12.2
2017-06-26T23:15:02.012Z,12.2
2017-06-26T23:20:01.552Z,12.2
2017-06-26T23:25:01.251Z,12
2017-06-26T23:30:02.151Z,12
2017-06-26T23:35:01.248Z,12
2017-06-26T23:40:02.033Z,11.9
2017-06-26T23:45:01.780Z,11.8
2017-06-26T23:50:01.826Z,11.8
2017-06-26T23:55:01.540Z,11.7
